Time;durP1;ratioP1;P1;durP2;ratioP2;P2;SDS_P1;SDS_P2;PMS_P1;PMS_P2;Temp;Humidity;BMP_temperature;BMP_pressure;BME280_temperature;BME280_humidity;BME280_pressure;Samples;Min_cycle;Max_cycle;Signal;HPM_P1;HPM_P2
2023/01/13 00:01:19;;;;;;;24.20;5.30;;;;;;;;;;5036526;28;20057;-78
2023/01/13 00:03:46;;;;;;;26.33;4.63;;;;;;;;;;5022506;28;20046;-79
2023/01/13 00:06:13;;;;;;;25.30;6.15;;;;;;;;;;5028754;28;20357;-78
2023/01/13 00:08:39;;;;;;;19.23;5.38;;;;;;;;;;5030291;28;20045;-78
2023/01/13 00:11:05;;;;;;;20.50;5.47;;;;;;;;;;5024226;28;20560;-78
2023/01/13 00:13:34;;;;;;;25.45;6.32;;;;;;;;;;5030097;28;20053;-77
2023/01/13 00:16:01;;;;;;;20.77;5.00;;;;;;;;;;5028619;28;20076;-77
2023/01/13 00:18:27;;;;;;;26.15;5.68;;;;;;;;;;5025670;28;20080;-78
2023/01/13 00:21:04;;;;;;;22.77;5.35;;;;;;;;;;5035123;28;20045;-78
2023/01/13 00:23:31;;;;;;;30.67;5.20;;;;;;;;;;5028560;28;20034;-78
2023/01/13 00:25:57;;;;;;;26.55;5.35;;;;;;;;;;5021235;28;20048;-78
2023/01/13 00:28:23;;;;;;;26.70;4.95;;;;;;;;;;5037721;28;20155;-78
2023/01/13 00:30:49;;;;;;;26.45;5.45;;;;;;;;;;5031247;28;20520;-78
2023/01/13 00:33:15;;;;;;;25.13;6.03;;;;;;;;;;5027530;28;20050;-78
2023/01/13 00:35:42;;;;;;;24.63;5.78;;;;;;;;;;5029513;28;20555;-78
2023/01/13 00:38:08;;;;;;;29.75;5.32;;;;;;;;;;5016525;28;20041;-78
2023/01/13 00:40:34;;;;;;;27.10;5.20;;;;;;;;;;5029877;28;20064;-78
2023/01/13 00:45:44;;;;;;;21.77;5.28;;;;;;;;;;5015492;28;20061;-78
2023/01/13 00:48:10;;;;;;;27.00;5.90;;;;;;;;;;5026719;28;20048;-77
2023/01/13 00:50:36;;;;;;;28.35;6.03;;;;;;;;;;5018412;28;20053;-78
2023/01/13 00:53:02;;;;;;;30.60;6.43;;;;;;;;;;5031294;28;20073;-77
2023/01/13 00:55:31;;;;;;;27.27;6.28;;;;;;;;;;5026953;28;20096;-77
2023/01/13 00:58:02;;;;;;;28.92;5.78;;;;;;;;;;5035085;28;20103;-77
2023/01/13 01:00:29;;;;;;;24.85;5.65;;;;;;;;;;5020516;28;20395;-78
2023/01/13 01:02:55;;;;;;;24.25;5.32;;;;;;;;;;5033729;28;20053;-78
2023/01/13 01:05:21;;;;;;;28.13;5.68;;;;;;;;;;5016228;28;20044;-78
2023/01/13 01:07:47;;;;;;;31.67;5.28;;;;;;;;;;5026570;28;20046;-78
2023/01/13 01:10:13;;;;;;;27.33;5.78;;;;;;;;;;5033753;28;20055;-78
2023/01/13 01:12:39;;;;;;;25.25;6.15;;;;;;;;;;5017756;28;20129;-78
2023/01/13 01:15:08;;;;;;;24.48;5.85;;;;;;;;;;5022205;28;20060;-77
2023/01/13 01:17:34;;;;;;;28.20;6.07;;;;;;;;;;5015352;28;20073;-77
2023/01/13 01:20:00;;;;;;;32.15;6.22;;;;;;;;;;5029863;28;20450;-77
2023/01/13 01:22:26;;;;;;;27.35;5.85;;;;;;;;;;5034741;28;20042;-78
2023/01/13 01:24:52;;;;;;;33.95;5.85;;;;;;;;;;5026684;28;20053;-78
2023/01/13 01:27:18;;;;;;;29.38;6.20;;;;;;;;;;5027579;28;20125;-78
2023/01/13 01:29:44;;;;;;;35.88;6.88;;;;;;;;;;5032105;28;20042;-78
2023/01/13 01:32:10;;;;;;;27.75;6.03;;;;;;;;;;5027506;28;20051;-78
2023/01/13 01:34:37;;;;;;;19.00;4.32;;;;;;;;;;5034707;28;20040;-78
2023/01/13 01:37:04;;;;;;;29.98;5.40;;;;;;;;;;5034061;28;20053;-78
2023/01/13 01:39:30;;;;;;;24.50;5.93;;;;;;;;;;5014483;28;20037;-78
2023/01/13 01:44:56;;;;;;;27.55;5.55;;;;;;;;;;5027443;28;20124;-78
2023/01/13 01:47:23;;;;;;;27.27;6.10;;;;;;;;;;5018372;28;20407;-78
2023/01/13 01:49:49;;;;;;;20.83;5.70;;;;;;;;;;5016065;28;20045;-78
2023/01/13 01:52:23;;;;;;;29.40;5.82;;;;;;;;;;5018005;28;20052;-78
2023/01/13 01:54:49;;;;;;;22.45;5.15;;;;;;;;;;5031713;28;20048;-78
2023/01/13 01:57:19;;;;;;;32.45;5.50;;;;;;;;;;5034484;28;20038;-78
2023/01/13 01:59:45;;;;;;;21.38;5.50;;;;;;;;;;5016843;28;20440;-78
2023/01/13 02:02:11;;;;;;;25.83;5.90;;;;;;;;;;5027794;28;20423;-78
2023/01/13 02:04:39;;;;;;;21.52;5.90;;;;;;;;;;5032844;28;20041;-78
2023/01/13 02:07:05;;;;;;;23.05;5.40;;;;;;;;;;5033733;28;20064;-78
2023/01/13 02:09:32;;;;;;;25.73;5.50;;;;;;;;;;5024659;28;20045;-78
2023/01/13 02:14:44;;;;;;;27.35;5.72;;;;;;;;;;5029479;28;20049;-78
2023/01/13 02:17:33;;;;;;;21.77;5.55;;;;;;;;;;5028969;28;20096;-78
2023/01/13 02:20:27;;;;;;;24.70;5.85;;;;;;;;;;5019558;28;20055;-78
2023/01/13 02:22:59;;;;;;;26.00;6.38;;;;;;;;;;5030310;28;20053;-78
2023/01/13 02:25:44;;;;;;;29.20;6.00;;;;;;;;;;5033310;28;20507;-78
2023/01/13 02:28:16;;;;;;;34.95;5.75;;;;;;;;;;5023222;28;20041;-78
2023/01/13 02:33:31;;;;;;;23.98;5.25;;;;;;;;;;5033384;28;20049;-78
2023/01/13 02:36:02;;;;;;;25.05;5.70;;;;;;;;;;5032931;28;20055;-78
2023/01/13 02:38:36;;;;;;;23.58;6.00;;;;;;;;;;5039136;28;20128;-78
2023/01/13 02:44:06;;;;;;;26.65;5.78;;;;;;;;;;5016375;28;20061;-77
2023/01/13 02:46:35;;;;;;;28.52;5.82;;;;;;;;;;5013312;28;20384;-77
2023/01/13 02:49:08;;;;;;;26.33;6.40;;;;;;;;;;5016152;28;20108;-78
2023/01/13 02:51:34;;;;;;;31.92;5.78;;;;;;;;;;5025568;28;20049;-78
2023/01/13 02:54:03;;;;;;;28.17;5.93;;;;;;;;;;5014970;28;20120;-78
2023/01/13 02:56:30;;;;;;;30.38;5.90;;;;;;;;;;5020991;28;20511;-78
2023/01/13 02:58:57;;;;;;;28.90;5.82;;;;;;;;;;5019885;28;20137;-77
2023/01/13 03:01:23;;;;;;;22.67;5.25;;;;;;;;;;5023133;28;20077;-77
2023/01/13 03:03:49;;;;;;;24.65;6.25;;;;;;;;;;5011964;28;20408;-77
2023/01/13 03:06:34;;;;;;;25.63;5.50;;;;;;;;;;5020523;28;20511;-77
2023/01/13 03:09:06;;;;;;;25.75;5.93;;;;;;;;;;5031637;28;20041;-77
2023/01/13 03:11:56;;;;;;;28.38;5.65;;;;;;;;;;5032971;28;20052;-77
2023/01/13 03:14:40;;;;;;;33.35;6.18;;;;;;;;;;4995816;28;20053;-77
2023/01/13 03:17:16;;;;;;;39.05;6.60;;;;;;;;;;5028852;28;20060;-77
2023/01/13 03:20:04;;;;;;;31.27;6.18;;;;;;;;;;5012667;28;20053;-77
2023/01/13 03:22:30;;;;;;;26.23;6.28;;;;;;;;;;5025153;28;20046;-77
2023/01/13 03:25:20;;;;;;;32.15;6.40;;;;;;;;;;5017564;28;20041;-77
2023/01/13 03:27:57;;;;;;;24.88;5.88;;;;;;;;;;5014763;28;20053;-78
2023/01/13 03:30:23;;;;;;;28.88;5.93;;;;;;;;;;5025913;28;20527;-79
2023/01/13 03:32:52;;;;;;;27.10;5.72;;;;;;;;;;5023877;28;20041;-78
2023/01/13 03:35:29;;;;;;;28.92;5.43;;;;;;;;;;5021661;28;20044;-78
2023/01/13 03:38:02;;;;;;;23.08;4.93;;;;;;;;;;5023244;28;20053;-79
2023/01/13 03:40:31;;;;;;;25.55;5.50;;;;;;;;;;5039431;28;20041;-78
2023/01/13 03:45:48;;;;;;;26.17;5.45;;;;;;;;;;5026855;28;20062;-79
2023/01/13 03:48:16;;;;;;;24.58;4.70;;;;;;;;;;5017270;28;20041;-78
2023/01/13 03:50:52;;;;;;;18.85;4.68;;;;;;;;;;5019532;28;20044;-78
2023/01/13 03:53:51;;;;;;;19.20;5.15;;;;;;;;;;5034439;28;20492;-78
2023/01/13 03:56:21;;;;;;;17.10;4.32;;;;;;;;;;4973081;28;20500;-78
2023/01/13 03:58:48;;;;;;;19.08;4.40;;;;;;;;;;5025823;28;20042;-78
2023/01/13 04:01:24;;;;;;;17.80;4.53;;;;;;;;;;5027255;28;20124;-78
2023/01/13 04:03:55;;;;;;;17.10;4.25;;;;;;;;;;5034332;28;20041;-78
2023/01/13 04:06:28;;;;;;;19.95;4.88;;;;;;;;;;5027015;28;20064;-78
2023/01/13 04:09:02;;;;;;;18.55;4.53;;;;;;;;;;5028130;28;20480;-78
2023/01/13 04:11:32;;;;;;;20.42;4.60;;;;;;;;;;5023323;28;20073;-78
2023/01/13 04:13:59;;;;;;;20.83;4.68;;;;;;;;;;5026132;28;20154;-78
2023/01/13 04:16:25;;;;;;;16.67;4.07;;;;;;;;;;5022873;28;20063;-78
2023/01/13 04:18:51;;;;;;;27.92;4.95;;;;;;;;;;5036152;28;20041;-78
2023/01/13 04:21:17;;;;;;;18.67;4.35;;;;;;;;;;5036085;28;20480;-78
2023/01/13 04:23:43;;;;;;;22.65;4.68;;;;;;;;;;5018415;28;20492;-78
2023/01/13 04:26:09;;;;;;;16.52;4.22;;;;;;;;;;5015409;28;20081;-78
2023/01/13 04:28:35;;;;;;;29.42;5.75;;;;;;;;;;5017550;28;20073;-78
2023/01/13 04:31:01;;;;;;;21.38;5.57;;;;;;;;;;5016686;28;20088;-78
2023/01/13 04:33:27;;;;;;;25.42;4.60;;;;;;;;;;5015514;28;20049;-78
2023/01/13 04:35:54;;;;;;;20.38;5.07;;;;;;;;;;5033593;28;20072;-78
2023/01/13 04:38:20;;;;;;;21.35;4.75;;;;;;;;;;5033478;28;20049;-78
2023/01/13 04:40:47;;;;;;;19.13;4.60;;;;;;;;;;5020425;28;20396;-78
2023/01/13 04:43:14;;;;;;;24.55;4.82;;;;;;;;;;5025440;28;20042;-78
2023/01/13 04:45:41;;;;;;;19.60;4.65;;;;;;;;;;5024461;28;20041;-78
2023/01/13 04:48:07;;;;;;;19.17;5.20;;;;;;;;;;5027434;28;20037;-78
2023/01/13 04:50:33;;;;;;;24.40;5.40;;;;;;;;;;5032338;28;20091;-78
2023/01/13 04:53:00;;;;;;;25.33;5.60;;;;;;;;;;5035805;28;20098;-77
2023/01/13 04:55:26;;;;;;;20.20;5.07;;;;;;;;;;5026192;28;20060;-78
2023/01/13 04:57:52;;;;;;;23.92;6.13;;;;;;;;;;5035184;28;20045;-78
2023/01/13 05:00:20;;;;;;;18.50;4.82;;;;;;;;;;5031637;28;20037;-78
2023/01/13 05:02:46;;;;;;;20.65;5.15;;;;;;;;;;5026806;28;20060;-78
2023/01/13 05:05:12;;;;;;;15.80;4.53;;;;;;;;;;5021691;28;20041;-78
2023/01/13 05:07:38;;;;;;;24.10;4.65;;;;;;;;;;5022852;28;20046;-78
2023/01/13 05:10:04;;;;;;;22.00;4.25;;;;;;;;;;5023334;28;20121;-78
2023/01/13 05:18:00;;;;;;;19.60;4.47;;;;;;;;;;5030260;28;20061;-78
2023/01/13 05:20:26;;;;;;;19.55;4.75;;;;;;;;;;5030346;28;20045;-78
2023/01/13 05:25:39;;;;;;;21.90;5.35;;;;;;;;;;5024446;28;20041;-78
2023/01/13 05:28:05;;;;;;;19.63;4.88;;;;;;;;;;5021234;28;20123;-78
2023/01/13 05:30:35;;;;;;;20.30;4.55;;;;;;;;;;5032762;28;20510;-78
2023/01/13 05:33:01;;;;;;;24.38;4.90;;;;;;;;;;5031347;28;20476;-78
2023/01/13 05:35:28;;;;;;;19.17;4.43;;;;;;;;;;5034663;28;20046;-78
2023/01/13 05:37:55;;;;;;;15.43;4.07;;;;;;;;;;5026376;28;20389;-78
2023/01/13 05:43:19;;;;;;;20.17;4.57;;;;;;;;;;5019692;28;20137;-78
2023/01/13 05:46:06;;;;;;;17.85;4.07;;;;;;;;;;5024652;28;20038;-78
2023/01/13 05:48:40;;;;;;;18.02;4.30;;;;;;;;;;5027950;28;20053;-78
2023/01/13 05:51:07;;;;;;;25.58;4.60;;;;;;;;;;5034484;28;20073;-78
2023/01/13 05:53:33;;;;;;;14.52;4.20;;;;;;;;;;5034708;28;20045;-78
2023/01/13 05:56:00;;;;;;;14.70;3.95;;;;;;;;;;5016824;28;20049;-78
2023/01/13 05:58:27;;;;;;;19.00;4.68;;;;;;;;;;5034297;28;20060;-78
2023/01/13 06:00:58;;;;;;;18.38;4.20;;;;;;;;;;5016672;28;20046;-78
2023/01/13 06:03:24;;;;;;;24.48;5.18;;;;;;;;;;5021493;28;20397;-78
2023/01/13 06:05:57;;;;;;;23.13;4.38;;;;;;;;;;5034479;28;20570;-78
2023/01/13 06:08:23;;;;;;;22.05;4.10;;;;;;;;;;5034761;28;20049;-78
2023/01/13 06:10:49;;;;;;;22.80;5.22;;;;;;;;;;5020984;28;20041;-78
2023/01/13 06:13:15;;;;;;;19.40;5.18;;;;;;;;;;5018411;28;20102;-78
2023/01/13 06:15:44;;;;;;;15.52;4.40;;;;;;;;;;5030975;28;20049;-78
2023/01/13 06:18:13;;;;;;;23.02;4.50;;;;;;;;;;5025435;28;20128;-78
2023/01/13 06:21:15;;;;;;;21.95;4.57;;;;;;;;;;5014696;28;20396;-78
2023/01/13 06:23:44;;;;;;;28.80;5.18;;;;;;;;;;5038142;28;20481;-78
2023/01/13 06:26:21;;;;;;;20.90;4.10;;;;;;;;;;5034279;28;20470;-78
2023/01/13 06:28:48;;;;;;;21.02;5.32;;;;;;;;;;5033590;28;20048;-78
2023/01/13 06:31:15;;;;;;;18.75;4.05;;;;;;;;;;5014819;28;20054;-78
2023/01/13 06:33:49;;;;;;;17.27;4.50;;;;;;;;;;5014502;28;20089;-78
2023/01/13 06:36:21;;;;;;;16.85;4.35;;;;;;;;;;5025469;28;20041;-78
2023/01/13 06:38:54;;;;;;;17.17;4.07;;;;;;;;;;5014974;28;20050;-78
2023/01/13 06:43:13;;;;;;;16.98;4.10;;;;;;;;;;5029983;28;20064;-78
2023/01/13 06:44:09;;;;;;;23.13;4.68;;;;;;;;;;5030723;28;20050;-78
2023/01/13 06:46:35;;;;;;;23.38;4.70;;;;;;;;;;5033280;28;20124;-78
2023/01/13 06:49:04;;;;;;;21.50;4.15;;;;;;;;;;5034247;28;20046;-78
2023/01/13 06:51:33;;;;;;;16.95;4.03;;;;;;;;;;5010162;28;20038;-77
2023/01/13 06:53:59;;;;;;;17.88;3.95;;;;;;;;;;5034561;28;20037;-77
2023/01/13 06:56:25;;;;;;;19.63;4.20;;;;;;;;;;5042356;28;20104;-77
2023/01/13 06:58:51;;;;;;;18.20;4.15;;;;;;;;;;5035740;28;20064;-77
2023/01/13 07:01:17;;;;;;;25.40;4.93;;;;;;;;;;5031616;28;20416;-77
2023/01/13 07:03:43;;;;;;;19.10;3.65;;;;;;;;;;5035910;28;20041;-77
2023/01/13 07:06:12;;;;;;;17.08;4.80;;;;;;;;;;5030928;28;20045;-77
2023/01/13 07:08:38;;;;;;;24.33;5.15;;;;;;;;;;5030802;28;20131;-77
2023/01/13 07:11:10;;;;;;;20.15;4.43;;;;;;;;;;5032241;28;20103;-77
2023/01/13 07:16:22;;;;;;;17.10;4.25;;;;;;;;;;5032045;28;20050;-78
2023/01/13 07:18:51;;;;;;;19.20;4.47;;;;;;;;;;5018057;28;20120;-78
2023/01/13 07:21:18;;;;;;;21.48;4.20;;;;;;;;;;5019738;28;20152;-77
2023/01/13 07:23:47;;;;;;;16.55;4.22;;;;;;;;;;5036043;28;20050;-77
2023/01/13 07:26:15;;;;;;;17.95;4.32;;;;;;;;;;5036896;28;20045;-77
2023/01/13 07:28:41;;;;;;;15.35;4.50;;;;;;;;;;5032176;28;20048;-78
2023/01/13 07:31:21;;;;;;;17.98;3.88;;;;;;;;;;5035906;28;20046;-79
2023/01/13 07:33:47;;;;;;;17.80;4.57;;;;;;;;;;5018506;28;20042;-77
2023/01/13 07:36:13;;;;;;;17.75;4.03;;;;;;;;;;5028072;28;20049;-78
2023/01/13 07:38:40;;;;;;;20.05;4.82;;;;;;;;;;5036419;28;20041;-78
2023/01/13 07:43:51;;;;;;;19.25;4.32;;;;;;;;;;5036226;28;20472;-78
2023/01/13 07:46:18;;;;;;;19.25;4.30;;;;;;;;;;5034263;28;20053;-78
2023/01/13 07:48:44;;;;;;;18.02;4.28;;;;;;;;;;5022929;28;20109;-77
2023/01/13 07:51:10;;;;;;;17.23;4.05;;;;;;;;;;5016765;28;20118;-77
2023/01/13 07:53:37;;;;;;;18.85;4.05;;;;;;;;;;5026383;28;20054;-78
2023/01/13 07:56:04;;;;;;;16.25;4.78;;;;;;;;;;5021935;28;20085;-78
2023/01/13 07:58:32;;;;;;;21.45;4.53;;;;;;;;;;5032997;28;20045;-78
2023/01/13 08:00:58;;;;;;;17.23;4.28;;;;;;;;;;5035529;28;20054;-78
2023/01/13 08:03:24;;;;;;;22.80;4.40;;;;;;;;;;5035943;28;20088;-78
2023/01/13 08:05:50;;;;;;;20.75;4.53;;;;;;;;;;5028675;28;20143;-78
2023/01/13 08:08:16;;;;;;;17.95;4.97;;;;;;;;;;5022922;28;20046;-79
2023/01/13 08:10:42;;;;;;;22.45;4.38;;;;;;;;;;5025089;28;20090;-79
2023/01/13 08:13:18;;;;;;;23.45;5.35;;;;;;;;;;5031812;28;20073;-78
2023/01/13 08:15:58;;;;;;;27.00;5.15;;;;;;;;;;5025188;28;20050;-78
2023/01/13 08:18:24;;;;;;;21.60;4.57;;;;;;;;;;5017397;28;20076;-78
2023/01/13 08:20:51;;;;;;;22.13;4.65;;;;;;;;;;5050948;28;20041;-78
2023/01/13 08:23:18;;;;;;;23.67;4.70;;;;;;;;;;5035460;28;20508;-78
2023/01/13 08:25:44;;;;;;;16.33;4.40;;;;;;;;;;5035318;28;20492;-78
2023/01/13 08:28:10;;;;;;;20.92;4.82;;;;;;;;;;5023189;28;20129;-77
2023/01/13 08:30:36;;;;;;;22.98;5.10;;;;;;;;;;5028384;28;20064;-77
2023/01/13 08:33:06;;;;;;;20.13;4.80;;;;;;;;;;5028109;28;20064;-77
2023/01/13 08:35:32;;;;;;;25.00;4.72;;;;;;;;;;5027068;28;20091;-78
2023/01/13 08:37:58;;;;;;;22.17;5.45;;;;;;;;;;5035541;28;20063;-76
2023/01/13 08:40:24;;;;;;;19.40;4.80;;;;;;;;;;5033524;28;20038;-76
2023/01/13 08:42:51;;;;;;;26.90;5.47;;;;;;;;;;5029004;28;20398;-76
2023/01/13 08:45:17;;;;;;;24.77;5.18;;;;;;;;;;5031665;28;20053;-76
2023/01/13 08:47:44;;;;;;;21.38;4.75;;;;;;;;;;5020096;28;20045;-76
2023/01/13 08:50:10;;;;;;;22.15;4.45;;;;;;;;;;5029351;28;20124;-78
2023/01/13 08:52:36;;;;;;;24.92;4.85;;;;;;;;;;5030199;28;20133;-75
2023/01/13 08:55:03;;;;;;;17.13;4.47;;;;;;;;;;5022996;28;20412;-78
2023/01/13 08:57:29;;;;;;;23.52;4.75;;;;;;;;;;5031773;28;20042;-75
2023/01/13 08:59:55;;;;;;;20.85;4.95;;;;;;;;;;5016339;28;20038;-76
2023/01/13 09:02:22;;;;;;;17.30;3.70;;;;;;;;;;5017969;28;20047;-78
2023/01/13 09:04:48;;;;;;;23.92;5.05;;;;;;;;;;5029824;28;20041;-76
2023/01/13 09:07:17;;;;;;;20.40;4.20;;;;;;;;;;5018561;28;20052;-76
2023/01/13 09:09:43;;;;;;;16.38;3.85;;;;;;;;;;5021785;28;20054;-75
2023/01/13 09:14:58;;;;;;;20.15;4.75;;;;;;;;;;5031346;28;20136;-76
2023/01/13 09:17:24;;;;;;;22.83;4.47;;;;;;;;;;5018434;28;20058;-75
2023/01/13 09:19:50;;;;;;;20.40;4.85;;;;;;;;;;5019210;28;20499;-76
2023/01/13 09:22:17;;;;;;;22.13;5.18;;;;;;;;;;5023111;28;20053;-76
2023/01/13 09:24:43;;;;;;;26.92;5.95;;;;;;;;;;5047904;28;20525;-75
2023/01/13 09:27:10;;;;;;;26.88;5.63;;;;;;;;;;5020365;28;20072;-75
2023/01/13 09:29:36;;;;;;;23.05;4.45;;;;;;;;;;5020523;28;20047;-76
2023/01/13 09:32:03;;;;;;;17.73;3.80;;;;;;;;;;5025511;28;20384;-76
2023/01/13 09:37:13;;;;;;;23.10;5.07;;;;;;;;;;5031206;28;20061;-76
2023/01/13 09:39:39;;;;;;;21.00;4.20;;;;;;;;;;5018387;28;20104;-76
2023/01/13 09:45:14;;;;;;;18.90;4.18;;;;;;;;;;5019233;28;20497;-76
2023/01/13 09:47:50;;;;;;;23.88;4.43;;;;;;;;;;5028066;28;20122;-76
2023/01/13 09:50:24;;;;;;;26.23;4.50;;;;;;;;;;5030324;28;20042;-76
2023/01/13 09:52:50;;;;;;;17.80;4.57;;;;;;;;;;5023966;28;20440;-75
2023/01/13 09:55:24;;;;;;;18.77;4.25;;;;;;;;;;5032235;28;20060;-76
2023/01/13 09:57:50;;;;;;;25.73;5.07;;;;;;;;;;5022432;28;20560;-76
2023/01/13 10:00:24;;;;;;;19.42;4.90;;;;;;;;;;5016763;28;20484;-76
2023/01/13 10:03:08;;;;;;;19.13;4.43;;;;;;;;;;5014735;28;20038;-75
2023/01/13 10:05:40;;;;;;;18.30;4.55;;;;;;;;;;5030607;28;20127;-76
2023/01/13 10:08:20;;;;;;;22.52;4.25;;;;;;;;;;5023368;28;20483;-77
2023/01/13 10:10:47;;;;;;;18.73;4.03;;;;;;;;;;5014781;28;20045;-76
2023/01/13 10:13:21;;;;;;;18.20;4.70;;;;;;;;;;5026558;28;20556;-77
2023/01/13 10:16:07;;;;;;;15.90;4.20;;;;;;;;;;5019789;28;20058;-77
2023/01/13 10:18:33;;;;;;;16.45;4.10;;;;;;;;;;4993053;28;20046;-77
2023/01/13 10:21:18;;;;;;;17.98;3.95;;;;;;;;;;5026781;28;20566;-76
2023/01/13 10:23:50;;;;;;;19.25;4.25;;;;;;;;;;5022199;28;20145;-77
2023/01/13 10:26:23;;;;;;;18.60;4.50;;;;;;;;;;5030184;28;20053;-76
2023/01/13 10:28:56;;;;;;;18.52;3.90;;;;;;;;;;5023098;28;20049;-76
2023/01/13 10:31:23;;;;;;;19.23;3.83;;;;;;;;;;5024811;28;20042;-79
2023/01/13 10:33:57;;;;;;;14.30;3.85;;;;;;;;;;5025607;28;20602;-77
2023/01/13 10:36:23;;;;;;;16.05;3.53;;;;;;;;;;5029068;28;20153;-76
2023/01/13 10:38:50;;;;;;;19.85;4.18;;;;;;;;;;5014650;28;20061;-77
2023/01/13 10:41:18;;;;;;;17.55;4.03;;;;;;;;;;5024019;28;20037;-76
2023/01/13 10:43:49;;;;;;;25.55;4.68;;;;;;;;;;5030847;28;20079;-76
2023/01/13 10:46:16;;;;;;;14.73;3.67;;;;;;;;;;5030494;28;20489;-76
2023/01/13 10:48:43;;;;;;;13.90;4.03;;;;;;;;;;5019232;28;20049;-76
2023/01/13 10:51:10;;;;;;;13.70;4.15;;;;;;;;;;5028276;28;20384;-76
2023/01/13 10:53:44;;;;;;;16.70;3.55;;;;;;;;;;5029922;28;20053;-76
2023/01/13 10:56:15;;;;;;;17.15;4.13;;;;;;;;;;5018218;28;20049;-77
2023/01/13 10:58:41;;;;;;;20.27;3.90;;;;;;;;;;5016437;28;20428;-77
2023/01/13 11:01:14;;;;;;;16.27;4.03;;;;;;;;;;5014193;28;20161;-78
2023/01/13 11:03:43;;;;;;;16.00;3.70;;;;;;;;;;5014547;28;20441;-77
2023/01/13 11:06:18;;;;;;;16.55;4.53;;;;;;;;;;5013603;28;20073;-78
2023/01/13 11:08:45;;;;;;;14.10;3.35;;;;;;;;;;5020275;28;20048;-78
2023/01/13 11:11:27;;;;;;;16.73;4.30;;;;;;;;;;5015031;28;20098;-77
2023/01/13 11:16:40;;;;;;;15.60;4.25;;;;;;;;;;5040714;28;20463;-77
2023/01/13 11:19:13;;;;;;;13.35;3.63;;;;;;;;;;5031924;28;20115;-78
2023/01/13 11:21:58;;;;;;;16.42;3.55;;;;;;;;;;5027901;28;20041;-77
2023/01/13 11:24:27;;;;;;;13.93;3.53;;;;;;;;;;5031509;28;20495;-76
2023/01/13 11:26:58;;;;;;;21.02;3.90;;;;;;;;;;5025429;28;20112;-76
2023/01/13 11:29:28;;;;;;;12.15;3.67;;;;;;;;;;5026158;28;20476;-76
2023/01/13 11:32:00;;;;;;;15.68;3.90;;;;;;;;;;5030474;28;20056;-80
2023/01/13 11:34:34;;;;;;;14.10;3.67;;;;;;;;;;5015618;28;20133;-77
2023/01/13 11:37:02;;;;;;;15.23;3.92;;;;;;;;;;5025654;28;20042;-77
2023/01/13 11:39:34;;;;;;;11.48;3.38;;;;;;;;;;5042213;28;20046;-76
2023/01/13 11:42:23;;;;;;;15.00;3.47;;;;;;;;;;5027972;28;20050;-76
2023/01/13 11:45:09;;;;;;;14.75;4.38;;;;;;;;;;5027360;28;20053;-75
2023/01/13 11:47:36;;;;;;;17.17;3.97;;;;;;;;;;5017473;28;20399;-76
2023/01/13 11:50:02;;;;;;;12.25;3.58;;;;;;;;;;5036438;28;20081;-76
2023/01/13 11:52:47;;;;;;;14.40;3.40;;;;;;;;;;5022791;28;20121;-76
2023/01/13 11:55:25;;;;;;;13.68;3.80;;;;;;;;;;5025917;28;20046;-76
2023/01/13 11:57:50;;;;;;;14.85;4.00;;;;;;;;;;5026463;28;20042;-76
2023/01/13 12:00:23;;;;;;;12.82;3.10;;;;;;;;;;5022967;28;20128;-77
2023/01/13 12:03:07;;;;;;;13.10;3.40;;;;;;;;;;5026482;28;20042;-77
2023/01/13 12:05:39;;;;;;;18.52;4.05;;;;;;;;;;5038093;28;20077;-77
2023/01/13 12:08:05;;;;;;;15.20;3.47;;;;;;;;;;5017781;28;20121;-77
2023/01/13 12:10:31;;;;;;;19.58;4.95;;;;;;;;;;5035737;28;20041;-77
2023/01/13 12:13:08;;;;;;;19.42;3.95;;;;;;;;;;5033647;28;20048;-77
2023/01/13 12:15:53;;;;;;;16.27;4.75;;;;;;;;;;5029219;28;20865;-77
2023/01/13 12:18:25;;;;;;;15.60;3.80;;;;;;;;;;5027461;28;20481;-76
2023/01/13 12:20:51;;;;;;;16.92;4.38;;;;;;;;;;5022912;28;20042;-77
2023/01/13 12:23:24;;;;;;;20.40;3.58;;;;;;;;;;5019989;28;20124;-78
2023/01/13 12:25:54;;;;;;;18.15;4.57;;;;;;;;;;5030119;28;20053;-77
2023/01/13 12:28:24;;;;;;;17.55;4.32;;;;;;;;;;5035031;28;20077;-76
2023/01/13 12:30:57;;;;;;;12.98;3.25;;;;;;;;;;5017191;28;20381;-76
2023/01/13 12:33:42;;;;;;;11.27;3.45;;;;;;;;;;5020014;28;20044;-77
2023/01/13 12:36:11;;;;;;;12.98;3.42;;;;;;;;;;5024127;28;20045;-77
2023/01/13 12:38:43;;;;;;;13.43;3.58;;;;;;;;;;5027625;28;20041;-77
2023/01/13 12:41:18;;;;;;;11.70;3.95;;;;;;;;;;5035344;28;20056;-77
2023/01/13 12:46:31;;;;;;;12.45;3.20;;;;;;;;;;5030195;28;20052;-77
2023/01/13 12:49:00;;;;;;;13.60;3.40;;;;;;;;;;5029570;28;20041;-77
2023/01/13 12:51:32;;;;;;;14.50;3.38;;;;;;;;;;5026702;28;20052;-77
2023/01/13 12:54:00;;;;;;;10.52;3.67;;;;;;;;;;5030100;28;20076;-77
2023/01/13 12:56:44;;;;;;;18.08;4.00;;;;;;;;;;5015682;28;20046;-77
2023/01/13 12:59:17;;;;;;;12.23;3.55;;;;;;;;;;5023186;28;20045;-77
2023/01/13 13:01:44;;;;;;;13.50;3.83;;;;;;;;;;5027863;28;20380;-77
2023/01/13 13:04:12;;;;;;;9.82;3.72;;;;;;;;;;5024528;28;20046;-77
2023/01/13 13:06:43;;;;;;;17.77;4.20;;;;;;;;;;5009438;28;20053;-77
2023/01/13 13:09:21;;;;;;;18.30;3.63;;;;;;;;;;5027390;28;20060;-77
2023/01/13 13:14:41;;;;;;;17.00;3.63;;;;;;;;;;5029668;28;20056;-77
2023/01/13 13:17:26;;;;;;;13.75;3.35;;;;;;;;;;5020256;28;20508;-76
2023/01/13 13:19:52;;;;;;;16.08;3.80;;;;;;;;;;5022409;28;20112;-78
2023/01/13 13:22:19;;;;;;;12.77;3.85;;;;;;;;;;5018766;28;20069;-76
2023/01/13 13:24:48;;;;;;;19.58;3.90;;;;;;;;;;5028248;28;20514;-77
2023/01/13 13:27:20;;;;;;;19.15;4.00;;;;;;;;;;5028531;28;21733;-76
2023/01/13 13:29:46;;;;;;;16.60;3.80;;;;;;;;;;5028883;28;20038;-76
2023/01/13 13:32:25;;;;;;;18.75;4.07;;;;;;;;;;5023429;28;20065;-78
2023/01/13 13:35:01;;;;;;;15.15;4.32;;;;;;;;;;5027294;28;20045;-77
2023/01/13 13:37:32;;;;;;;13.43;3.65;;;;;;;;;;5029085;28;20125;-77
2023/01/13 13:48:34;;;;;;;17.40;3.97;;;;;;;;;;5021290;28;20042;-75
2023/01/13 13:51:02;;;;;;;11.85;3.20;;;;;;;;;;5031633;28;20050;-76
2023/01/13 13:53:39;;;;;;;17.90;3.85;;;;;;;;;;5027868;28;20097;-76
2023/01/13 13:56:13;;;;;;;15.60;4.72;;;;;;;;;;5033048;28;20107;-76
2023/01/13 13:58:39;;;;;;;12.15;3.03;;;;;;;;;;5032654;28;20052;-76
2023/01/13 14:01:06;;;;;;;13.07;3.47;;;;;;;;;;5024702;28;20041;-76
2023/01/13 14:03:34;;;;;;;10.88;3.10;;;;;;;;;;5022850;28;20041;-76
2023/01/13 14:06:01;;;;;;;13.20;3.35;;;;;;;;;;5019086;28;20048;-75
2023/01/13 14:08:28;;;;;;;18.00;3.45;;;;;;;;;;5022128;28;20037;-76
2023/01/13 14:10:55;;;;;;;10.27;3.25;;;;;;;;;;5026065;28;20057;-76
2023/01/13 14:13:22;;;;;;;8.23;2.90;;;;;;;;;;5018193;28;20064;-76
2023/01/13 14:15:56;;;;;;;12.68;3.03;;;;;;;;;;5033374;28;20061;-76
2023/01/13 14:18:22;;;;;;;13.82;2.90;;;;;;;;;;5028896;28;20563;-76
2023/01/13 14:20:54;;;;;;;10.45;2.72;;;;;;;;;;5028363;28;20049;-76
2023/01/13 14:23:23;;;;;;;12.82;3.75;;;;;;;;;;5026860;28;20048;-75
2023/01/13 14:25:50;;;;;;;18.58;3.70;;;;;;;;;;5031785;28;20072;-75
2023/01/13 14:28:16;;;;;;;16.60;3.38;;;;;;;;;;5029031;28;20038;-75
2023/01/13 14:30:42;;;;;;;6.57;2.67;;;;;;;;;;5022432;28;20053;-75
2023/01/13 14:33:13;;;;;;;7.95;2.22;;;;;;;;;;5010912;28;20088;-74
2023/01/13 14:35:59;;;;;;;6.05;2.25;;;;;;;;;;5028335;28;20123;-75
2023/01/13 14:38:26;;;;;;;5.57;2.20;;;;;;;;;;5037923;28;20368;-76
2023/01/13 14:40:52;;;;;;;9.57;1.95;;;;;;;;;;5042759;28;20120;-76
2023/01/13 14:43:19;;;;;;;3.45;1.40;;;;;;;;;;5026988;28;20050;-74
2023/01/13 14:45:56;;;;;;;8.50;2.72;;;;;;;;;;5024549;28;20048;-75
2023/01/13 14:48:24;;;;;;;5.38;2.00;;;;;;;;;;5015964;28;20054;-75
2023/01/13 14:50:50;;;;;;;8.27;2.20;;;;;;;;;;5033449;28;20041;-74
2023/01/13 14:53:37;;;;;;;8.63;2.45;;;;;;;;;;5025083;28;20046;-74
2023/01/13 14:56:22;;;;;;;11.90;2.53;;;;;;;;;;5039563;28;20544;-74
2023/01/13 14:58:48;;;;;;;13.27;3.40;;;;;;;;;;5031851;28;20060;-74
2023/01/13 15:01:35;;;;;;;15.25;3.30;;;;;;;;;;5031441;28;20044;-74
2023/01/13 15:04:20;;;;;;;14.65;4.20;;;;;;;;;;5041435;28;20171;-74
2023/01/13 15:06:46;;;;;;;18.55;4.05;;;;;;;;;;5033094;28;20052;-74
2023/01/13 15:09:12;;;;;;;17.85;4.07;;;;;;;;;;5031661;28;20053;-74
2023/01/13 15:11:39;;;;;;;18.67;4.15;;;;;;;;;;5035213;28;20049;-74
2023/01/13 15:14:10;;;;;;;15.82;3.88;;;;;;;;;;5042581;28;20053;-73
2023/01/13 15:16:36;;;;;;;16.75;4.10;;;;;;;;;;5035963;28;20183;-74
2023/01/13 15:19:03;;;;;;;16.65;4.50;;;;;;;;;;5033284;28;20061;-74
2023/01/13 15:21:29;;;;;;;15.75;3.20;;;;;;;;;;5030374;28;20417;-74
2023/01/13 15:23:55;;;;;;;6.03;1.98;;;;;;;;;;5031275;28;20496;-73
2023/01/13 15:26:23;;;;;;;5.60;1.85;;;;;;;;;;5036892;28;20041;-73
2023/01/13 15:28:49;;;;;;;8.35;2.58;;;;;;;;;;5036338;28;20484;-73
2023/01/13 15:31:16;;;;;;;9.32;2.35;;;;;;;;;;5022111;28;20404;-73
2023/01/13 15:33:42;;;;;;;8.85;2.35;;;;;;;;;;5017200;28;20053;-74
2023/01/13 15:36:18;;;;;;;8.10;2.42;;;;;;;;;;5033817;28;20050;-76
2023/01/13 15:38:44;;;;;;;13.35;3.25;;;;;;;;;;5030596;28;20120;-75
2023/01/13 15:41:10;;;;;;;9.05;2.90;;;;;;;;;;5021828;28;20069;-73
2023/01/13 15:46:36;;;;;;;17.08;3.63;;;;;;;;;;5018616;28;20493;-73
2023/01/13 15:49:17;;;;;;;13.98;3.70;;;;;;;;;;5029128;28;20048;-74